< < Back
Terminal Aerodrome Forecast


Current Version              Previous Versions:   1  2  3  4  5  6  7  8  9  

Terminal Aerodrome Forecast

002
FTUS42 KTAE 292300
TAFVLD
TAF
KVLD 292334Z 3000/3024 18003KT P6SM SCT030
      TEMPO 3009/3013 5SM -SHRA BR SCT007 BKN015
     FM301300 34010KT P6SM SCT030=

Latest METAR

600
SAUS70 KWBC 301500 RRE
MTRVLD
METAR KVLD 301453Z 00000KT 10SM SCT020 12/07 A3022 RMK AO2 SLP241
T01220067 51019


USA.gov is the U.S. government's official web portal to all federal, state and local government web resources and services.